Time;durP1;ratioP1;P1;durP2;ratioP2;P2;SDS_P1;SDS_P2;PMS_P1;PMS_P2;Temp;Humidity;BMP_temperature;BMP_pressure;BME280_temperature;BME280_humidity;BME280_pressure;Samples;Min_cycle;Max_cycle;Signal;HPM_P1;HPM_P2
2021/01/02 00:00:46;;;;;;;0.50;0.50;;;3.10;99.90;;;;;;4954260;29;20235;-89
2021/01/02 00:03:50;;;;;;;0.50;0.50;;;3.00;99.90;;;;;;4954343;29;20699;-88
2021/01/02 00:06:42;;;;;;;0.50;0.50;;;3.00;99.90;;;;;;4953016;29;20506;-88
2021/01/02 00:09:21;;;;;;;0.50;0.50;;;2.90;99.90;;;;;;4952693;29;20207;-89
2021/01/02 00:12:41;;;;;;;0.50;0.50;;;2.80;99.90;;;;;;4953142;29;20231;-88
2021/01/02 00:15:08;;;;;;;0.50;0.50;;;3.00;99.90;;;;;;4953941;28;20212;-89
2021/01/02 00:18:03;;;;;;;0.50;0.50;;;3.00;99.90;;;;;;4952166;28;20199;-88
2021/01/02 00:21:02;;;;;;;0.50;0.50;;;2.60;99.90;;;;;;4954910;28;20278;-88
2021/01/02 00:24:10;;;;;;;0.50;0.50;;;3.00;99.90;;;;;;4950931;28;20234;-89
2021/01/02 00:27:10;;;;;;;0.47;0.47;;;3.00;99.90;;;;;;4946698;28;20667;-89
2021/01/02 00:30:11;;;;;;;0.50;0.50;;;2.30;99.90;;;;;;4953450;28;20211;-87
2021/01/02 00:43:10;;;;;;;0.50;0.50;;;2.30;99.90;;;;;;4949684;29;20203;-88
2021/01/02 00:46:18;;;;;;;0.50;0.50;;;2.80;99.90;;;;;;4953291;29;20234;-88
2021/01/02 00:49:15;;;;;;;0.50;0.50;;;2.40;99.90;;;;;;4954067;28;20686;-88
2021/01/02 00:52:03;;;;;;;0.50;0.50;;;2.10;99.90;;;;;;4953386;28;20200;-89
2021/01/02 00:55:06;;;;;;;0.50;0.50;;;2.60;99.90;;;;;;4953670;29;20616;-88
2021/01/02 00:58:14;;;;;;;0.50;0.50;;;2.90;99.90;;;;;;4953431;29;20223;-88
2021/01/02 01:00:47;;;;;;;0.50;0.50;;;2.90;99.90;;;;;;4953160;28;20790;-88
2021/01/02 01:03:50;;;;;;;0.50;0.50;;;4.10;99.90;;;;;;4953527;28;20330;-87
2021/01/02 01:06:52;;;;;;;0.50;0.50;;;2.80;99.90;;;;;;4953850;29;20217;-88
2021/01/02 01:09:36;;;;;;;0.50;0.50;;;2.40;99.90;;;;;;4954090;28;20217;-87
2021/01/02 01:12:03;;;;;;;0.50;0.50;;;2.60;99.90;;;;;;4953422;29;20302;-88
2021/01/02 01:14:35;;;;;;;0.50;0.50;;;2.70;99.90;;;;;;4953954;28;20242;-87
2021/01/02 01:17:20;;;;;;;0.50;0.50;;;2.50;99.90;;;;;;4954202;28;20211;-87
2021/01/02 01:19:59;;;;;;;0.50;0.50;;;2.70;99.90;;;;;;4953768;29;20211;-87
2021/01/02 01:26:17;;;;;;;0.50;0.50;;;4.60;99.90;;;;;;4960502;28;20245;-88
2021/01/02 01:36:42;;;;;;;0.50;0.50;;;2.60;99.90;;;;;;4911866;29;20232;-88
2021/01/02 02:06:49;;;;;;;0.50;0.50;;;2.60;99.90;;;;;;4770064;29;20219;-88
2021/01/02 02:12:51;;;;;;;0.50;0.50;;;2.40;99.90;;;;;;4937618;28;20215;-88
2021/01/02 02:15:30;;;;;;;0.50;0.50;;;2.80;99.90;;;;;;4975185;28;20210;-88
2021/01/02 02:18:08;;;;;;;0.50;0.50;;;2.70;99.90;;;;;;4975188;28;20294;-88
2021/01/02 02:21:08;;;;;;;0.50;0.50;;;2.00;99.90;;;;;;4975481;28;20246;-88
2021/01/02 02:24:01;;;;;;;0.50;0.50;;;2.40;99.90;;;;;;4975426;28;20210;-89
2021/01/02 02:26:46;;;;;;;0.50;0.50;;;2.40;99.90;;;;;;4955625;29;20565;-88
2021/01/02 02:29:37;;;;;;;0.50;0.50;;;2.50;99.90;;;;;;4954916;29;20218;-88
2021/01/02 02:32:29;;;;;;;0.50;0.50;;;2.40;99.90;;;;;;4954524;29;20615;-88
2021/01/02 02:35:05;;;;;;;0.50;0.50;;;2.70;99.90;;;;;;4954122;28;20224;-88
2021/01/02 02:37:44;;;;;;;0.50;0.50;;;2.50;99.90;;;;;;4954925;29;20227;-87
2021/01/02 02:40:40;;;;;;;0.50;0.50;;;2.40;99.90;;;;;;4953500;29;20211;-88
2021/01/02 02:43:21;;;;;;;0.50;0.50;;;2.50;99.90;;;;;;4954441;29;20204;-88
2021/01/02 02:45:56;;;;;;;0.50;0.50;;;2.00;99.90;;;;;;4953990;28;20207;-88
2021/01/02 02:48:53;;;;;;;0.50;0.50;;;2.60;99.90;;;;;;4953976;29;20207;-87
2021/01/02 02:51:38;;;;;;;0.50;0.50;;;2.60;99.90;;;;;;4954200;28;20263;-88
2021/01/02 02:54:33;;;;;;;0.50;0.50;;;3.60;99.90;;;;;;4953774;29;20215;-88
2021/01/02 02:57:11;;;;;;;0.50;0.50;;;2.50;99.90;;;;;;4954441;29;20279;-88
2021/01/02 02:59:55;;;;;;;0.50;0.50;;;3.10;99.90;;;;;;4954069;29;20270;-89
2021/01/02 03:02:28;;;;;;;0.50;0.50;;;2.80;99.90;;;;;;4954736;29;20224;-88
2021/01/02 03:05:03;;;;;;;0.50;0.50;;;2.50;99.90;;;;;;4954896;29;20675;-89
2021/01/02 03:07:47;;;;;;;0.50;0.50;;;2.30;99.90;;;;;;4953865;28;20259;-87
2021/01/02 03:10:27;;;;;;;0.50;0.50;;;2.30;99.90;;;;;;4954504;29;20211;-89
2021/01/02 03:13:17;;;;;;;0.50;0.50;;;3.90;99.90;;;;;;4954581;29;20211;-88
2021/01/02 03:15:44;;;;;;;0.50;0.50;;;4.40;99.90;;;;;;4954789;28;20227;-88
2021/01/02 03:18:12;;;;;;;0.50;0.50;;;2.60;99.90;;;;;;4954057;29;20207;-87
2021/01/02 03:20:40;;;;;;;0.50;0.50;;;2.50;99.90;;;;;;4954149;29;20743;-88
2021/01/02 03:23:09;;;;;;;0.50;0.50;;;2.50;99.90;;;;;;4954342;29;20211;-88
2021/01/02 03:25:39;;;;;;;0.50;0.50;;;2.30;99.90;;;;;;4969141;28;20271;-87
2021/01/02 03:28:06;;;;;;;0.50;0.50;;;2.30;99.90;;;;;;4973473;28;20254;-88
2021/01/02 03:30:32;;;;;;;0.50;0.50;;;2.70;99.90;;;;;;4973289;28;20230;-88
2021/01/02 03:33:05;;;;;;;0.50;0.50;;;2.20;99.90;;;;;;4973729;28;20214;-86
2021/01/02 03:35:40;;;;;;;0.50;0.50;;;2.60;99.90;;;;;;4973823;28;20203;-87
2021/01/02 03:38:07;;;;;;;0.50;0.50;;;2.00;99.90;;;;;;4973348;28;20203;-88
2021/01/02 03:40:33;;;;;;;0.50;0.50;;;2.60;99.90;;;;;;4972166;28;20239;-88
2021/01/02 03:43:01;;;;;;;0.50;0.50;;;2.90;99.90;;;;;;4972344;28;20211;-88
2021/01/02 03:45:29;;;;;;;0.50;0.50;;;2.40;99.90;;;;;;4973239;28;20202;-87
2021/01/02 03:47:56;;;;;;;0.50;0.50;;;2.50;99.90;;;;;;4972944;28;20261;-87
2021/01/02 03:50:22;;;;;;;0.50;0.50;;;2.10;99.90;;;;;;4973757;28;20202;-88
2021/01/02 03:52:51;;;;;;;0.50;0.50;;;2.70;99.90;;;;;;4974127;28;20207;-87
2021/01/02 03:55:18;;;;;;;0.50;0.50;;;3.00;99.90;;;;;;4973629;28;20211;-87
2021/01/02 03:57:44;;;;;;;0.50;0.50;;;2.70;99.90;;;;;;4973553;28;20195;-87
2021/01/02 04:00:16;;;;;;;0.50;0.50;;;2.70;99.90;;;;;;4974133;28;20235;-87
2021/01/02 04:02:44;;;;;;;0.50;0.50;;;2.30;99.90;;;;;;4973696;28;20246;-87
2021/01/02 04:05:12;;;;;;;0.50;0.50;;;2.40;99.90;;;;;;4973195;28;20217;-87
2021/01/02 04:07:38;;;;;;;0.50;0.50;;;2.70;99.90;;;;;;4973301;28;20215;-87
2021/01/02 04:10:11;;;;;;;0.50;0.50;;;2.60;99.90;;;;;;4973042;28;20618;-87
2021/01/02 04:12:40;;;;;;;0.50;0.50;;;2.70;99.90;;;;;;4972191;28;20231;-88
2021/01/02 04:15:07;;;;;;;0.50;0.50;;;2.70;99.90;;;;;;4971541;28;20248;-88
2021/01/02 04:17:38;;;;;;;0.50;0.50;;;2.70;99.90;;;;;;4972127;28;20238;-88
2021/01/02 04:20:05;;;;;;;0.50;0.50;;;2.40;99.90;;;;;;4971699;28;20567;-87
2021/01/02 04:22:32;;;;;;;0.50;0.50;;;2.70;99.90;;;;;;4972156;28;20230;-87
2021/01/02 04:25:03;;;;;;;0.50;0.50;;;2.70;99.90;;;;;;4971746;28;20239;-87
2021/01/02 04:27:31;;;;;;;0.50;0.50;;;3.70;99.90;;;;;;4972579;28;20215;-87
2021/01/02 04:29:57;;;;;;;0.50;0.50;;;4.00;99.90;;;;;;4973392;28;20258;-87
2021/01/02 04:32:24;;;;;;;0.50;0.50;;;2.70;99.90;;;;;;4973409;28;20214;-87
2021/01/02 04:34:51;;;;;;;0.50;0.50;;;2.40;99.90;;;;;;4973050;28;20218;-88
2021/01/02 04:37:27;;;;;;;0.50;0.50;;;3.40;99.90;;;;;;4973106;28;20199;-87
2021/01/02 04:39:56;;;;;;;0.50;0.50;;;2.20;99.90;;;;;;4972525;28;20231;-87
2021/01/02 04:42:24;;;;;;;0.50;0.50;;;2.50;99.90;;;;;;4972567;28;20234;-87
2021/01/02 04:44:52;;;;;;;0.50;0.50;;;2.30;99.90;;;;;;4972808;28;20214;-87
2021/01/02 04:47:22;;;;;;;0.50;0.50;;;2.40;99.90;;;;;;4972810;28;20203;-87
2021/01/02 04:49:49;;;;;;;0.50;0.50;;;2.40;99.90;;;;;;4973442;28;20211;-87
2021/01/02 04:52:36;;;;;;;0.50;0.50;;;2.50;99.90;;;;;;4972762;28;20245;-89
2021/01/02 05:12:27;;;;;;;0.50;0.50;;;2.20;99.90;;;;;;4778511;29;20586;-89
2021/01/02 05:18:37;;;;;;;0.50;0.50;;;2.30;99.90;;;;;;4943999;28;20222;-88
2021/01/02 05:21:18;;;;;;;0.50;0.50;;;2.40;99.90;;;;;;4971993;28;20226;-88
2021/01/02 05:24:10;;;;;;;0.50;0.50;;;1.80;99.90;;;;;;4972300;28;20234;-88
2021/01/02 05:27:00;;;;;;;0.50;0.50;;;3.20;99.90;;;;;;4972251;28;20257;-88
2021/01/02 05:29:31;;;;;;;0.50;0.50;;;2.40;99.90;;;;;;4972375;28;20210;-87
2021/01/02 05:32:03;;;;;;;0.50;0.50;;;2.20;99.90;;;;;;4975370;28;20206;-87
2021/01/02 05:34:35;;;;;;;0.50;0.50;;;3.20;99.90;;;;;;4975924;28;20582;-88
2021/01/02 05:37:16;;;;;;;0.50;0.50;;;2.20;99.90;;;;;;4975897;28;20222;-88
2021/01/02 05:40:05;;;;;;;;;;;;;;;;;;;;;
2021/01/02 05:45:55;;;;;;;0.50;0.50;;;3.50;99.90;;;;;;4974619;28;20250;-89
2021/01/02 05:48:43;;;;;;;0.50;0.50;;;2.20;99.90;;;;;;4975886;28;20199;-88
2021/01/02 05:51:58;;;;;;;0.50;0.50;;;3.60;99.90;;;;;;4975371;28;20293;-88
2021/01/02 05:55:08;;;;;;;;;;;;;;;;;;;;;
2021/01/02 05:57:57;;;;;;;0.50;0.50;;;2.00;99.90;;;;;;4975688;28;20214;-89
2021/01/02 06:00:51;;;;;;;0.50;0.50;;;1.90;99.90;;;;;;4974713;28;20685;-89
2021/01/02 06:03:31;;;;;;;0.50;0.50;;;1.70;99.90;;;;;;4975028;28;20222;-88
2021/01/02 06:06:15;;;;;;;0.50;0.50;;;1.20;99.90;;;;;;4975334;28;20261;-89
2021/01/02 06:08:53;;;;;;;0.50;0.50;;;1.30;99.90;;;;;;4974533;28;20206;-89
2021/01/02 06:11:22;;;;;;;0.50;0.50;;;2.10;99.90;;;;;;4974255;28;20206;-89
2021/01/02 06:13:55;;;;;;;0.50;0.50;;;2.80;99.90;;;;;;4973924;28;20214;-89
2021/01/02 06:16:26;;;;;;;0.50;0.50;;;1.40;99.90;;;;;;4974107;28;20654;-88
2021/01/02 06:18:53;;;;;;;0.50;0.50;;;2.30;99.90;;;;;;4974819;28;20218;-88
2021/01/02 06:21:20;;;;;;;0.50;0.50;;;1.60;99.90;;;;;;4975005;28;20227;-88
2021/01/02 06:23:50;;;;;;;0.50;0.50;;;2.10;99.90;;;;;;4975182;28;20214;-89
2021/01/02 06:26:30;;;;;;;0.50;0.50;;;2.00;99.90;;;;;;4973980;28;20242;-89
2021/01/02 06:29:08;;;;;;;0.50;0.50;;;2.10;99.90;;;;;;4974580;28;20274;-90
2021/01/02 06:32:03;;;;;;;0.50;0.50;;;2.10;99.90;;;;;;4974224;28;20203;-89
2021/01/02 06:34:35;;;;;;;0.50;0.50;;;2.20;99.90;;;;;;4973091;28;20214;-89
2021/01/02 06:37:28;;;;;;;0.50;0.50;;;2.00;99.90;;;;;;4973045;28;20214;-89
2021/01/02 06:40:50;;;;;;;0.50;0.50;;;2.20;99.90;;;;;;4972250;28;20279;-89
2021/01/02 06:53:27;;;;;;;0.50;0.50;;;2.20;99.90;;;;;;4971931;28;20211;-89
2021/01/02 06:56:22;;;;;;;0.50;0.50;;;2.10;99.90;;;;;;4973267;28;20203;-88
2021/01/02 06:59:20;;;;;;;0.50;0.50;;;2.30;99.90;;;;;;4974204;28;20207;-88
2021/01/02 07:04:59;;;;;;;0.50;0.50;;;2.30;99.90;;;;;;4973600;28;20253;-90
2021/01/02 07:08:16;;;;;;;0.50;0.50;;;2.40;99.90;;;;;;4973572;28;20207;-89
2021/01/02 07:11:23;;;;;;;0.50;0.50;;;2.30;99.90;;;;;;4972734;28;20211;-89
2021/01/02 07:14:43;;;;;;;0.50;0.50;;;2.20;99.90;;;;;;4913304;29;20208;-89
2021/01/02 07:17:13;;;;;;;0.50;0.50;;;2.30;99.90;;;;;;4974106;28;20271;-88
2021/01/02 07:19:54;;;;;;;0.50;0.50;;;2.30;99.90;;;;;;4974478;28;20199;-89
2021/01/02 07:23:13;;;;;;;0.50;0.50;;;2.40;99.90;;;;;;4973020;28;20316;-88
2021/01/02 07:29:11;;;;;;;0.50;0.50;;;2.50;99.90;;;;;;4939074;28;20207;-89
2021/01/02 07:32:04;;;;;;;0.50;0.50;;;2.50;99.90;;;;;;4973288;28;20286;-88
2021/01/02 07:37:37;;;;;;;0.50;0.50;;;2.30;99.90;;;;;;4945568;28;20969;-88
2021/01/02 07:40:16;;;;;;;0.50;0.50;;;2.10;99.90;;;;;;4973483;28;20290;-89
2021/01/02 07:43:26;;;;;;;0.50;0.50;;;2.40;99.90;;;;;;4973057;28;20237;-89
2021/01/02 07:46:14;;;;;;;0.50;0.50;;;2.30;99.90;;;;;;4972539;28;20210;-89
2021/01/02 07:55:34;;;;;;;0.50;0.50;;;2.00;99.90;;;;;;4968940;28;20210;-89
2021/01/02 08:02:41;;;;;;;0.50;0.50;;;1.70;99.90;;;;;;4969830;28;20297;-89
2021/01/02 08:19:26;;;;;;;0.50;0.50;;;2.60;99.90;;;;;;4738135;30;20706;-88
2021/01/02 08:21:57;;;;;;;0.50;0.50;;;2.60;99.90;;;;;;4844158;29;20232;-88
2021/01/02 08:24:33;;;;;;;0.50;0.50;;;2.50;99.90;;;;;;4912799;29;20374;-88
2021/01/02 08:30:20;;;;;;;0.50;0.50;;;2.60;99.90;;;;;;4948732;28;20206;-89
2021/01/02 08:32:55;;;;;;;0.40;0.40;;;2.70;99.90;;;;;;4972504;28;20242;-88
2021/01/02 08:35:43;;;;;;;0.50;0.50;;;2.40;99.90;;;;;;4972643;28;20217;-88
2021/01/02 08:38:15;;;;;;;0.50;0.50;;;2.80;99.90;;;;;;4971937;28;20218;-88
2021/01/02 08:40:44;;;;;;;0.50;0.50;;;2.60;99.90;;;;;;4971725;28;20298;-88
2021/01/02 08:43:26;;;;;;;0.50;0.50;;;2.80;99.90;;;;;;4971915;28;20210;-88
2021/01/02 08:46:00;;;;;;;0.50;0.50;;;3.40;99.90;;;;;;4971348;28;20222;-88
2021/01/02 08:48:33;;;;;;;0.50;0.50;;;4.00;99.90;;;;;;4972329;28;20205;-89
2021/01/02 08:51:01;;;;;;;0.50;0.50;;;2.90;99.90;;;;;;4973123;28;20238;-88
2021/01/02 08:53:40;;;;;;;0.50;0.50;;;4.40;99.90;;;;;;4986768;28;20229;-89
2021/01/02 08:56:28;;;;;;;0.50;0.50;;;3.00;99.90;;;;;;4990872;28;20232;-89
2021/01/02 08:58:57;;;;;;;0.50;0.50;;;3.40;99.90;;;;;;4992294;28;20265;-88
2021/01/02 09:01:23;;;;;;;0.50;0.50;;;3.00;99.90;;;;;;4992652;28;20229;-89
2021/01/02 09:03:49;;;;;;;0.50;0.50;;;3.00;99.90;;;;;;4992128;28;20288;-88
2021/01/02 09:06:25;;;;;;;0.50;0.50;;;3.10;99.90;;;;;;4993680;28;20210;-87
2021/01/02 09:08:59;;;;;;;0.50;0.50;;;3.20;99.90;;;;;;4996573;28;20229;-87
2021/01/02 09:11:26;;;;;;;0.50;0.50;;;3.10;99.90;;;;;;4996413;28;20296;-87
2021/01/02 09:14:05;;;;;;;0.50;0.50;;;3.20;99.90;;;;;;4996584;28;20636;-87
2021/01/02 09:16:35;;;;;;;0.50;0.50;;;3.20;99.90;;;;;;4996430;28;20210;-87
2021/01/02 09:19:03;;;;;;;0.40;0.40;;;2.80;99.90;;;;;;4995945;28;20469;-88
2021/01/02 09:21:33;;;;;;;0.40;0.40;;;3.20;99.90;;;;;;4995498;28;20460;-88
2021/01/02 09:24:00;;;;;;;0.50;0.50;;;3.20;99.90;;;;;;4996142;28;20585;-89
2021/01/02 09:26:34;;;;;;;0.50;0.50;;;3.30;99.90;;;;;;4995760;28;20234;-88
2021/01/02 09:29:08;;;;;;;0.50;0.50;;;3.20;99.90;;;;;;4995968;28;20216;-89
2021/01/02 09:31:36;;;;;;;0.50;0.50;;;3.20;99.90;;;;;;4996029;28;20206;-89
2021/01/02 09:34:02;;;;;;;0.50;0.50;;;3.20;99.90;;;;;;4996041;28;20669;-88
2021/01/02 09:36:28;;;;;;;0.50;0.50;;;3.20;99.90;;;;;;4996258;28;20222;-89
2021/01/02 09:38:56;;;;;;;0.50;0.50;;;3.10;99.90;;;;;;4995909;28;20251;-88
2021/01/02 09:41:26;;;;;;;0.50;0.50;;;2.90;99.90;;;;;;4996041;28;20326;-88
2021/01/02 09:43:57;;;;;;;0.50;0.50;;;4.60;99.90;;;;;;4995990;28;20297;-88
2021/01/02 09:46:24;;;;;;;0.50;0.50;;;3.00;99.90;;;;;;4996340;28;20654;-89
2021/01/02 09:48:54;;;;;;;0.50;0.50;;;2.90;99.90;;;;;;4995989;28;20541;-88
2021/01/02 09:51:23;;;;;;;0.50;0.50;;;3.20;99.90;;;;;;4995517;28;20206;-88
2021/01/02 09:53:50;;;;;;;0.50;0.50;;;3.20;99.90;;;;;;4996182;28;20271;-88
2021/01/02 09:56:16;;;;;;;0.50;0.50;;;3.20;99.90;;;;;;4995997;28;20214;-89
2021/01/02 09:58:53;;;;;;;0.50;0.50;;;3.20;99.90;;;;;;4994992;28;20904;-88
2021/01/02 10:01:19;;;;;;;0.50;0.50;;;3.30;99.90;;;;;;4994906;28;20229;-88
2021/01/02 10:03:48;;;;;;;0.50;0.50;;;3.20;99.90;;;;;;4995106;28;20199;-88
2021/01/02 10:06:16;;;;;;;0.50;0.50;;;3.10;99.90;;;;;;4994890;28;20214;-88
2021/01/02 10:08:42;;;;;;;0.50;0.50;;;3.80;99.90;;;;;;4994739;28;20194;-89
2021/01/02 10:11:11;;;;;;;0.50;0.50;;;3.00;99.90;;;;;;4993665;28;20252;-88
2021/01/02 10:13:38;;;;;;;0.50;0.50;;;3.20;99.90;;;;;;4992339;28;20286;-89
2021/01/02 10:16:06;;;;;;;0.50;0.50;;;3.30;99.90;;;;;;4994287;28;20692;-89
2021/01/02 10:18:37;;;;;;;0.50;0.50;;;3.40;99.90;;;;;;4994454;28;20680;-88
2021/01/02 10:21:04;;;;;;;0.50;0.50;;;3.40;99.90;;;;;;4995342;28;20206;-88
2021/01/02 10:23:33;;;;;;;0.50;0.50;;;3.40;99.90;;;;;;4995082;28;20213;-88
2021/01/02 10:25:59;;;;;;;0.50;0.50;;;4.70;99.90;;;;;;4994936;28;20257;-89
2021/01/02 10:28:25;;;;;;;0.50;0.50;;;3.50;99.90;;;;;;4995175;28;20206;-88
2021/01/02 10:30:52;;;;;;;0.50;0.50;;;3.40;99.90;;;;;;4994989;28;20214;-88
2021/01/02 10:33:56;;;;;;;0.50;0.50;;;3.60;99.90;;;;;;4994537;28;20253;-89
2021/01/02 10:36:24;;;;;;;0.50;0.50;;;4.90;99.90;;;;;;4989928;28;20212;-88
2021/01/02 10:38:50;;;;;;;0.50;0.50;;;3.60;99.90;;;;;;4994911;28;20211;-88
2021/01/02 10:41:16;;;;;;;0.50;0.50;;;3.60;99.90;;;;;;4994793;28;20202;-88
2021/01/02 10:43:43;;;;;;;0.50;0.50;;;3.50;99.90;;;;;;4994448;28;20214;-88
2021/01/02 10:46:10;;;;;;;0.50;0.50;;;3.50;99.90;;;;;;4994588;28;20217;-88
2021/01/02 10:48:36;;;;;;;0.50;0.50;;;3.50;99.90;;;;;;4993072;28;20207;-87
2021/01/02 10:51:31;;;;;;;0.50;0.50;;;5.10;99.90;;;;;;4993613;28;20206;-88
2021/01/02 10:53:58;;;;;;;0.50;0.50;;;3.80;99.90;;;;;;4995833;28;20210;-86
2021/01/02 10:56:28;;;;;;;0.50;0.50;;;3.50;99.90;;;;;;4992620;28;20199;-87
2021/01/02 10:58:54;;;;;;;0.50;0.50;;;3.50;99.90;;;;;;4993108;28;20210;-86
2021/01/02 11:01:20;;;;;;;0.50;0.50;;;3.40;99.90;;;;;;4994204;28;20253;-87
2021/01/02 11:03:46;;;;;;;0.50;0.50;;;3.30;99.90;;;;;;4994246;28;20205;-86
2021/01/02 11:06:15;;;;;;;0.50;0.50;;;3.70;99.90;;;;;;4993530;28;20551;-86
2021/01/02 11:08:41;;;;;;;0.50;0.50;;;3.80;99.90;;;;;;4994082;28;20199;-87
2021/01/02 11:11:09;;;;;;;0.50;0.50;;;5.00;99.90;;;;;;4994630;28;20210;-87
2021/01/02 11:13:36;;;;;;;0.50;0.50;;;3.70;99.90;;;;;;4994265;28;20299;-87
2021/01/02 11:16:03;;;;;;;0.50;0.50;;;3.60;99.90;;;;;;4993508;28;20207;-87
2021/01/02 11:18:29;;;;;;;0.50;0.50;;;3.80;99.90;;;;;;4993359;28;20669;-86
2021/01/02 11:20:56;;;;;;;0.50;0.50;;;4.00;99.90;;;;;;4993871;28;20716;-87
2021/01/02 11:23:22;;;;;;;0.50;0.50;;;4.30;99.90;;;;;;4993935;28;20222;-87
2021/01/02 11:25:50;;;;;;;0.50;0.50;;;4.60;99.90;;;;;;4993627;28;20244;-87
2021/01/02 11:28:18;;;;;;;0.50;0.50;;;3.70;99.90;;;;;;4992444;28;20237;-87
2021/01/02 11:30:45;;;;;;;0.50;0.50;;;3.60;99.90;;;;;;4993865;28;20538;-88
2021/01/02 11:33:14;;;;;;;0.50;0.50;;;3.60;99.90;;;;;;4994024;28;20209;-88
2021/01/02 11:35:41;;;;;;;0.50;0.50;;;3.90;99.90;;;;;;4993658;28;20210;-88
2021/01/02 11:38:10;;;;;;;0.50;0.50;;;3.90;99.90;;;;;;4993757;28;20206;-87
2021/01/02 11:40:36;;;;;;;0.50;0.50;;;3.90;99.90;;;;;;4993500;28;20673;-87
2021/01/02 11:43:02;;;;;;;0.50;0.50;;;3.90;99.90;;;;;;4993358;28;20227;-88
2021/01/02 11:45:32;;;;;;;0.50;0.50;;;4.10;99.90;;;;;;4993576;28;20198;-88
2021/01/02 11:47:59;;;;;;;0.50;0.50;;;3.90;99.90;;;;;;4993506;28;20203;-87
2021/01/02 11:50:25;;;;;;;0.50;0.50;;;3.70;99.90;;;;;;4993381;28;20228;-87
2021/01/02 11:52:51;;;;;;;0.50;0.50;;;3.90;99.90;;;;;;4993139;28;20210;-87
2021/01/02 11:55:17;;;;;;;0.50;0.50;;;3.90;99.90;;;;;;4994425;28;20206;-87
2021/01/02 11:57:44;;;;;;;0.50;0.50;;;3.90;99.90;;;;;;4993237;28;20237;-86
2021/01/02 12:00:13;;;;;;;0.50;0.50;;;3.90;99.90;;;;;;4993527;28;20206;-88
2021/01/02 12:02:41;;;;;;;0.50;0.50;;;3.90;99.90;;;;;;4993082;28;20273;-86
2021/01/02 12:05:08;;;;;;;0.50;0.50;;;4.00;99.90;;;;;;4992928;28;20268;-86
2021/01/02 12:07:35;;;;;;;0.50;0.50;;;4.20;99.90;;;;;;4992995;28;20233;-86
2021/01/02 12:10:04;;;;;;;0.60;0.60;;;4.00;99.90;;;;;;4945201;28;20245;-85
2021/01/02 12:12:30;;;;;;;0.50;0.50;;;4.10;99.90;;;;;;4982767;28;20209;-85
2021/01/02 12:14:56;;;;;;;0.50;0.50;;;4.00;99.90;;;;;;4985481;28;20260;-85
2021/01/02 12:17:22;;;;;;;0.50;0.50;;;4.00;99.90;;;;;;4990241;28;20206;-87
2021/01/02 12:19:53;;;;;;;0.50;0.50;;;4.00;99.90;;;;;;4988027;28;20209;-86
2021/01/02 12:22:21;;;;;;;0.50;0.50;;;3.80;99.90;;;;;;4987138;28;20255;-86
2021/01/02 12:24:47;;;;;;;0.60;0.60;;;4.00;99.90;;;;;;4987513;28;20265;-86
2021/01/02 12:27:16;;;;;;;0.50;0.50;;;4.00;99.90;;;;;;4986420;28;20325;-86
2021/01/02 12:29:47;;;;;;;0.50;0.50;;;5.20;99.90;;;;;;4982999;28;21362;-86
2021/01/02 12:32:13;;;;;;;0.50;0.50;;;4.00;99.90;;;;;;4986410;28;20580;-86
2021/01/02 12:34:42;;;;;;;0.50;0.50;;;3.80;99.90;;;;;;4988693;28;20596;-86
2021/01/02 12:37:12;;;;;;;0.50;0.50;;;5.30;99.90;;;;;;4990911;28;20211;-86
2021/01/02 12:39:40;;;;;;;0.50;0.50;;;4.00;99.90;;;;;;4987491;28;20203;-86
2021/01/02 12:42:06;;;;;;;0.50;0.50;;;4.00;99.90;;;;;;4988532;28;20218;-86
2021/01/02 12:44:33;;;;;;;0.50;0.50;;;4.00;99.90;;;;;;4983313;28;20222;-86
2021/01/02 12:47:02;;;;;;;0.50;0.50;;;3.80;99.90;;;;;;4971579;28;20207;-87
2021/01/02 12:49:32;;;;;;;0.50;0.50;;;4.00;99.90;;;;;;4972142;28;20318;-85
2021/01/02 12:52:00;;;;;;;0.50;0.50;;;4.00;99.90;;;;;;4985278;28;20205;-86
2021/01/02 12:54:28;;;;;;;0.50;0.50;;;4.00;99.90;;;;;;4988333;28;20217;-85
2021/01/02 12:56:55;;;;;;;0.50;0.50;;;4.10;99.90;;;;;;4988456;28;20206;-86
2021/01/02 12:59:24;;;;;;;0.50;0.50;;;4.00;99.90;;;;;;4977646;28;20217;-86
2021/01/02 13:01:51;;;;;;;0.50;0.50;;;3.90;99.90;;;;;;4971465;28;20267;-86
2021/01/02 13:04:18;;;;;;;0.50;0.50;;;4.00;99.90;;;;;;4981782;28;20574;-85
2021/01/02 13:06:48;;;;;;;0.50;0.50;;;4.00;99.90;;;;;;4980599;28;20631;-86
2021/01/02 13:09:14;;;;;;;0.50;0.50;;;4.00;99.90;;;;;;4976403;28;20210;-86
2021/01/02 13:11:49;;;;;;;0.50;0.50;;;4.00;99.90;;;;;;4988484;28;20245;-86
2021/01/02 13:14:16;;;;;;;0.50;0.50;;;4.20;99.90;;;;;;4985039;28;20202;-86
2021/01/02 13:16:50;;;;;;;0.50;0.50;;;4.00;99.90;;;;;;4970698;28;20257;-86
2021/01/02 13:19:17;;;;;;;0.50;0.50;;;3.90;99.90;;;;;;4970772;28;20207;-86
2021/01/02 13:21:47;;;;;;;0.50;0.50;;;4.00;99.90;;;;;;4970679;28;20231;-87
2021/01/02 13:24:14;;;;;;;0.50;0.50;;;5.40;99.90;;;;;;4970556;28;20265;-88
2021/01/02 13:26:48;;;;;;;0.50;0.50;;;3.90;99.90;;;;;;4970490;28;20237;-87
2021/01/02 13:29:15;;;;;;;0.50;0.50;;;3.90;99.90;;;;;;4970342;28;20214;-87
2021/01/02 13:31:46;;;;;;;0.50;0.50;;;4.70;99.90;;;;;;4971495;28;20299;-88
2021/01/02 13:34:14;;;;;;;0.50;0.50;;;3.80;99.90;;;;;;4986613;28;20218;-86
2021/01/02 13:36:42;;;;;;;0.50;0.50;;;3.80;99.90;;;;;;4979470;28;20202;-87
2021/01/02 13:39:13;;;;;;;0.50;0.50;;;3.70;99.90;;;;;;4979051;28;20238;-86
2021/01/02 13:41:40;;;;;;;0.50;0.50;;;3.70;99.90;;;;;;4980747;28;20222;-86
2021/01/02 13:44:09;;;;;;;0.50;0.50;;;3.70;99.90;;;;;;4987742;28;20234;-86
2021/01/02 13:46:35;;;;;;;0.50;0.50;;;3.70;99.90;;;;;;4985668;28;20198;-86
2021/01/02 13:49:02;;;;;;;0.50;0.50;;;3.80;99.90;;;;;;4987961;28;20213;-86
2021/01/02 13:51:28;;;;;;;0.50;0.50;;;3.70;99.90;;;;;;4987639;28;20892;-87
2021/01/02 13:53:55;;;;;;;0.50;0.50;;;3.60;99.90;;;;;;4988552;28;20210;-86
2021/01/02 13:56:21;;;;;;;0.50;0.50;;;3.70;99.90;;;;;;4974235;28;20211;-87
2021/01/02 13:58:48;;;;;;;0.50;0.50;;;3.70;99.90;;;;;;4973923;28;20488;-86
2021/01/02 14:01:17;;;;;;;0.50;0.50;;;3.60;99.90;;;;;;4985206;28;20202;-86
2021/01/02 14:03:45;;;;;;;0.50;0.50;;;3.70;99.90;;;;;;4977643;28;20600;-86
2021/01/02 14:06:12;;;;;;;0.50;0.50;;;3.70;99.90;;;;;;4984259;28;20210;-86
2021/01/02 14:08:42;;;;;;;0.52;0.52;;;3.30;99.90;;;;;;4975129;28;20207;-86
2021/01/02 14:11:09;;;;;;;0.50;0.50;;;3.80;99.90;;;;;;4982368;28;20636;-86
2021/01/02 14:13:35;;;;;;;0.50;0.50;;;3.70;99.90;;;;;;4975324;28;20204;-86
2021/01/02 14:16:01;;;;;;;0.50;0.50;;;3.70;99.90;;;;;;4974737;28;20635;-87
2021/01/02 14:18:28;;;;;;;0.50;0.50;;;3.70;99.90;;;;;;4974882;28;20218;-87
2021/01/02 14:20:54;;;;;;;0.50;0.50;;;3.70;99.90;;;;;;4975141;28;20305;-87
2021/01/02 14:23:21;;;;;;;0.50;0.50;;;3.70;99.90;;;;;;4986686;28;20284;-88
2021/01/02 14:25:47;;;;;;;0.50;0.50;;;5.60;99.90;;;;;;4976720;28;20235;-87
2021/01/02 14:28:13;;;;;;;0.60;0.60;;;3.70;99.90;;;;;;4975102;28;20290;-87
2021/01/02 14:30:42;;;;;;;0.50;0.50;;;3.70;99.90;;;;;;4974414;28;20621;-87
2021/01/02 14:33:11;;;;;;;0.50;0.50;;;3.50;99.90;;;;;;4974959;28;20297;-87
2021/01/02 14:35:38;;;;;;;0.50;0.50;;;3.50;99.90;;;;;;4974844;28;20211;-87
2021/01/02 14:38:05;;;;;;;0.50;0.50;;;3.80;99.90;;;;;;4976414;28;20265;-87
2021/01/02 14:40:31;;;;;;;0.50;0.50;;;3.60;99.90;;;;;;4987132;28;20207;-87
2021/01/02 14:42:57;;;;;;;0.50;0.50;;;3.60;99.90;;;;;;4974641;28;20223;-87
2021/01/02 14:45:25;;;;;;;0.50;0.50;;;3.70;99.90;;;;;;4974528;28;20659;-87
2021/01/02 14:47:51;;;;;;;0.50;0.50;;;3.70;99.90;;;;;;4974315;28;20301;-87
2021/01/02 14:51:09;;;;;;;;;;;;;;;;;;;;;
2021/01/02 15:24:16;;;;;;;0.50;0.50;;;3.70;99.90;;;;;;4810484;29;20748;-87
2021/01/02 15:26:43;;;;;;;0.50;0.50;;;3.60;99.90;;;;;;4925968;28;20238;-87
2021/01/02 15:29:10;;;;;;;0.50;0.50;;;3.70;99.90;;;;;;4986064;28;20210;-87
2021/01/02 15:31:39;;;;;;;0.50;0.50;;;3.70;99.90;;;;;;4977278;28;20210;-88
2021/01/02 15:34:23;;;;;;;0.50;0.50;;;3.40;99.90;;;;;;4973683;28;20770;-87
2021/01/02 15:36:51;;;;;;;0.50;0.50;;;3.60;99.90;;;;;;4973990;28;20818;-88
2021/01/02 15:39:22;;;;;;;0.50;0.50;;;3.50;99.90;;;;;;4994362;28;20202;-88
2021/01/02 15:41:50;;;;;;;0.50;0.50;;;3.60;99.90;;;;;;4974584;28;20848;-88
2021/01/02 15:44:20;;;;;;;0.50;0.50;;;5.00;99.90;;;;;;4972962;28;20218;-88
2021/01/02 15:46:49;;;;;;;0.60;0.60;;;3.60;99.90;;;;;;5002197;28;20210;-87
2021/01/02 15:49:20;;;;;;;0.50;0.50;;;3.60;99.90;;;;;;5002643;28;20209;-87
2021/01/02 15:51:50;;;;;;;0.50;0.50;;;4.80;99.90;;;;;;5004121;28;20233;-88
2021/01/02 15:54:20;;;;;;;0.57;0.57;;;4.60;99.90;;;;;;4985336;28;20209;-88
2021/01/02 15:56:48;;;;;;;0.50;0.50;;;3.70;99.90;;;;;;4983812;28;20286;-88
2021/01/02 15:59:17;;;;;;;0.50;0.50;;;3.60;99.90;;;;;;4973512;28;20215;-87
2021/01/02 16:01:44;;;;;;;0.60;0.60;;;3.50;99.90;;;;;;4972336;28;20218;-88
2021/01/02 16:04:10;;;;;;;0.50;0.50;;;3.70;99.90;;;;;;4973204;28;20571;-87
2021/01/02 16:06:37;;;;;;;0.60;0.60;;;3.70;99.90;;;;;;4986669;28;20206;-87
2021/01/02 16:09:05;;;;;;;0.50;0.50;;;3.60;99.90;;;;;;4992231;28;20210;-87
2021/01/02 16:11:37;;;;;;;0.50;0.50;;;3.70;99.90;;;;;;4994828;28;20559;-87
2021/01/02 16:14:07;;;;;;;0.50;0.50;;;4.70;99.90;;;;;;4979139;28;20295;-87